首页
METAR-TAF:

METAR-TAF

机场 :

利摩日, 法国

纬度: 45-52N, 经度: 001-11E, 海拔: 396米

当前天气观测

该预报发布于19分钟前的18:30 UTC
风速3节,风向北转东北
温度 31°C
湿度 38%
气压 1021 hPa
能见度10公里或以上
1500米以下无云,无积雨云

METAR: LFBL 221830Z AUTO 03003KT CAVOK 31/15 Q1021 NOSIG

时间: 20:49 (18:49 UTC)

预报

该预报发布于1小时和49分钟前的17:00 UTC
预报有效从22日的 18点(UTC)到 23日的 18点(UTC)
风速6节,风向北转东北
能见度10公里或以上
1500米以下无云,无积雨云
成为
从 22日的 20点(UTC)到 22日的 22点(UTC)
风速3节,风向多变
成为
从 23日的 08点(UTC)到 23日的 10点(UTC)
风速8节,风向东南

TAF: LFBL 221700Z 2218/2318 02006KT CAVOK BECMG 2220/2222 VRB03KT BECMG 2308/2310 14008KT

超过4000个机场的气象观测和天气预报(METAR&TAF报告)。

可查询的气象台以黄色和红色小点在地图上表示。

将鼠标移到小点上方,可查看气象台名称。

然后点击查看天气观测和预报。

如需切换地图:点击带黑十字的绿色按钮放大地图;点击带横线的绿色按钮缩小地图;或者点击绿色箭头查看邻近地区的地图。


METAR-TAF: